sensor_id;sensor_type;location;lat;lon;timestamp;temperature;humidity
3001;DHT22;1510;51.072;6.678;2023-07-16T00:00:25;17.70;99.90
3001;DHT22;1510;51.072;6.678;2023-07-16T00:02:52;17.70;99.90
3001;DHT22;1510;51.072;6.678;2023-07-16T00:05:18;17.70;99.90
3001;DHT22;1510;51.072;6.678;2023-07-16T00:07:45;17.70;99.90
3001;DHT22;1510;51.072;6.678;2023-07-16T00:10:12;17.70;99.90
3001;DHT22;1510;51.072;6.678;2023-07-16T00:12:39;17.60;99.90
3001;DHT22;1510;51.072;6.678;2023-07-16T00:15:09;17.70;99.90
3001;DHT22;1510;51.072;6.678;2023-07-16T00:17:36;17.70;99.90
3001;DHT22;1510;51.072;6.678;2023-07-16T00:20:03;17.60;99.90
3001;DHT22;1510;51.072;6.678;2023-07-16T00:22:31;17.60;99.90
3001;DHT22;1510;51.072;6.678;2023-07-16T00:24:58;17.60;99.90
3001;DHT22;1510;51.072;6.678;2023-07-16T00:27:25;17.50;99.90
3001;DHT22;1510;51.072;6.678;2023-07-16T00:29:51;17.50;99.90
3001;DHT22;1510;51.072;6.678;2023-07-16T00:32:20;17.40;99.90
3001;DHT22;1510;51.072;6.678;2023-07-16T00:34:46;17.30;99.90
3001;DHT22;1510;51.072;6.678;2023-07-16T00:37:13;17.20;99.90
3001;DHT22;1510;51.072;6.678;2023-07-16T00:39:40;17.20;99.90
3001;DHT22;1510;51.072;6.678;2023-07-16T00:42:07;17.20;99.90
3001;DHT22;1510;51.072;6.678;2023-07-16T00:44:34;17.20;99.90
3001;DHT22;1510;51.072;6.678;2023-07-16T00:47:01;17.10;99.90
3001;DHT22;1510;51.072;6.678;2023-07-16T00:49:29;17.00;99.90
3001;DHT22;1510;51.072;6.678;2023-07-16T00:51:58;17.00;99.90
3001;DHT22;1510;51.072;6.678;2023-07-16T00:54:26;16.80;99.90
3001;DHT22;1510;51.072;6.678;2023-07-16T00:56:53;16.80;99.90
3001;DHT22;1510;51.072;6.678;2023-07-16T00:59:20;16.70;99.90
3001;DHT22;1510;51.072;6.678;2023-07-16T01:01:47;16.70;99.90
3001;DHT22;1510;51.072;6.678;2023-07-16T01:04:14;16.60;99.90
3001;DHT22;1510;51.072;6.678;2023-07-16T01:06:46;16.60;99.90
3001;DHT22;1510;51.072;6.678;2023-07-16T01:09:16;16.50;99.90
3001;DHT22;1510;51.072;6.678;2023-07-16T01:11:44;16.50;99.90
3001;DHT22;1510;51.072;6.678;2023-07-16T01:14:11;16.40;99.90
3001;DHT22;1510;51.072;6.678;2023-07-16T01:16:40;16.40;99.90
3001;DHT22;1510;51.072;6.678;2023-07-16T01:19:07;16.30;99.90
3001;DHT22;1510;51.072;6.678;2023-07-16T01:21:37;16.30;99.90
3001;DHT22;1510;51.072;6.678;2023-07-16T01:24:25;16.30;99.90
3001;DHT22;1510;51.072;6.678;2023-07-16T01:27:14;16.20;99.90
3001;DHT22;1510;51.072;6.678;2023-07-16T01:29:46;16.30;99.90
3001;DHT22;1510;51.072;6.678;2023-07-16T01:32:17;16.40;99.90
3001;DHT22;1510;51.072;6.678;2023-07-16T01:34:44;16.40;99.90
3001;DHT22;1510;51.072;6.678;2023-07-16T01:37:11;16.40;99.90
3001;DHT22;1510;51.072;6.678;2023-07-16T01:39:39;16.40;99.90
3001;DHT22;1510;51.072;6.678;2023-07-16T01:42:06;16.50;99.90
3001;DHT22;1510;51.072;6.678;2023-07-16T01:44:33;16.50;99.90
3001;DHT22;1510;51.072;6.678;2023-07-16T01:47:08;16.50;99.90
3001;DHT22;1510;51.072;6.678;2023-07-16T01:49:35;16.50;99.90
3001;DHT22;1510;51.072;6.678;2023-07-16T01:52:04;16.50;99.90
3001;DHT22;1510;51.072;6.678;2023-07-16T01:54:31;16.50;99.90
3001;DHT22;1510;51.072;6.678;2023-07-16T01:56:58;16.50;99.90
3001;DHT22;1510;51.072;6.678;2023-07-16T01:59:25;16.50;99.90
3001;DHT22;1510;51.072;6.678;2023-07-16T02:01:51;16.50;99.90
3001;DHT22;1510;51.072;6.678;2023-07-16T02:04:20;16.50;99.90
3001;DHT22;1510;51.072;6.678;2023-07-16T02:06:47;16.50;99.90
3001;DHT22;1510;51.072;6.678;2023-07-16T02:09:14;16.50;99.90
3001;DHT22;1510;51.072;6.678;2023-07-16T02:11:41;16.60;99.90
3001;DHT22;1510;51.072;6.678;2023-07-16T02:14:08;16.60;99.90
3001;DHT22;1510;51.072;6.678;2023-07-16T02:16:35;16.60;99.90
3001;DHT22;1510;51.072;6.678;2023-07-16T02:19:02;16.60;99.90
3001;DHT22;1510;51.072;6.678;2023-07-16T02:21:30;16.70;99.90
3001;DHT22;1510;51.072;6.678;2023-07-16T02:23:57;16.70;99.90
3001;DHT22;1510;51.072;6.678;2023-07-16T02:26:24;16.70;99.90
3001;DHT22;1510;51.072;6.678;2023-07-16T02:28:51;16.70;99.90
3001;DHT22;1510;51.072;6.678;2023-07-16T02:31:17;16.70;99.90
3001;DHT22;1510;51.072;6.678;2023-07-16T02:33:44;16.70;99.90
3001;DHT22;1510;51.072;6.678;2023-07-16T02:36:11;16.70;99.90
3001;DHT22;1510;51.072;6.678;2023-07-16T02:38:39;16.70;99.90
3001;DHT22;1510;51.072;6.678;2023-07-16T02:41:06;16.60;99.90
3001;DHT22;1510;51.072;6.678;2023-07-16T02:43:33;16.60;99.90
3001;DHT22;1510;51.072;6.678;2023-07-16T02:46:00;16.60;99.90
3001;DHT22;1510;51.072;6.678;2023-07-16T02:48:27;16.60;99.90
3001;DHT22;1510;51.072;6.678;2023-07-16T02:50:53;16.50;99.90
3001;DHT22;1510;51.072;6.678;2023-07-16T02:53:20;16.50;99.90
3001;DHT22;1510;51.072;6.678;2023-07-16T02:55:48;16.40;99.90
3001;DHT22;1510;51.072;6.678;2023-07-16T02:58:15;16.40;99.90
3001;DHT22;1510;51.072;6.678;2023-07-16T03:00:42;16.30;99.90
3001;DHT22;1510;51.072;6.678;2023-07-16T03:03:09;16.40;99.90
3001;DHT22;1510;51.072;6.678;2023-07-16T03:05:36;16.40;99.90
3001;DHT22;1510;51.072;6.678;2023-07-16T03:08:03;16.40;99.90
3001;DHT22;1510;51.072;6.678;2023-07-16T03:10:30;16.40;99.90
3001;DHT22;1510;51.072;6.678;2023-07-16T03:12:58;16.30;99.90
3001;DHT22;1510;51.072;6.678;2023-07-16T03:15:25;16.40;99.90
3001;DHT22;1510;51.072;6.678;2023-07-16T03:17:51;16.40;99.90
3001;DHT22;1510;51.072;6.678;2023-07-16T03:20:18;16.30;99.90
3001;DHT22;1510;51.072;6.678;2023-07-16T03:22:45;16.20;99.90
3001;DHT22;1510;51.072;6.678;2023-07-16T03:25:12;16.20;99.90
3001;DHT22;1510;51.072;6.678;2023-07-16T03:27:39;16.10;99.90
3001;DHT22;1510;51.072;6.678;2023-07-16T03:30:08;16.10;99.90
3001;DHT22;1510;51.072;6.678;2023-07-16T03:32:35;16.00;99.90
3001;DHT22;1510;51.072;6.678;2023-07-16T03:35:02;16.00;99.90
3001;DHT22;1510;51.072;6.678;2023-07-16T03:37:29;16.00;99.90
3001;DHT22;1510;51.072;6.678;2023-07-16T03:39:56;16.00;99.90
3001;DHT22;1510;51.072;6.678;2023-07-16T03:42:23;15.90;99.90
3001;DHT22;1510;51.072;6.678;2023-07-16T03:44:49;16.00;99.90
3001;DHT22;1510;51.072;6.678;2023-07-16T03:47:18;16.00;99.90
3001;DHT22;1510;51.072;6.678;2023-07-16T03:49:44;15.90;99.90
3001;DHT22;1510;51.072;6.678;2023-07-16T03:52:11;15.80;99.90
3001;DHT22;1510;51.072;6.678;2023-07-16T03:54:38;15.80;99.90
3001;DHT22;1510;51.072;6.678;2023-07-16T03:57:05;15.70;99.90
3001;DHT22;1510;51.072;6.678;2023-07-16T03:59:32;15.80;99.90
3001;DHT22;1510;51.072;6.678;2023-07-16T04:01:59;15.70;99.90
3001;DHT22;1510;51.072;6.678;2023-07-16T04:04:27;15.70;99.90
3001;DHT22;1510;51.072;6.678;2023-07-16T04:06:54;15.70;99.90
3001;DHT22;1510;51.072;6.678;2023-07-16T04:09:21;15.70;99.90
3001;DHT22;1510;51.072;6.678;2023-07-16T04:11:49;15.70;99.90
3001;DHT22;1510;51.072;6.678;2023-07-16T04:14:15;15.80;99.90
3001;DHT22;1510;51.072;6.678;2023-07-16T04:16:42;15.70;99.90
3001;DHT22;1510;51.072;6.678;2023-07-16T04:19:09;15.70;99.90
3001;DHT22;1510;51.072;6.678;2023-07-16T04:21:37;15.80;99.90
3001;DHT22;1510;51.072;6.678;2023-07-16T04:24:05;15.80;99.90
3001;DHT22;1510;51.072;6.678;2023-07-16T04:26:32;15.90;99.90
3001;DHT22;1510;51.072;6.678;2023-07-16T04:28:59;16.00;99.90
3001;DHT22;1510;51.072;6.678;2023-07-16T04:31:26;16.10;99.90
3001;DHT22;1510;51.072;6.678;2023-07-16T04:33:52;16.10;99.90
3001;DHT22;1510;51.072;6.678;2023-07-16T04:36:19;16.20;99.90
3001;DHT22;1510;51.072;6.678;2023-07-16T04:38:47;16.20;99.90
3001;DHT22;1510;51.072;6.678;2023-07-16T04:41:16;16.30;99.90
3001;DHT22;1510;51.072;6.678;2023-07-16T04:43:43;16.20;99.90
3001;DHT22;1510;51.072;6.678;2023-07-16T04:46:10;16.20;99.90
3001;DHT22;1510;51.072;6.678;2023-07-16T04:48:37;16.20;99.90
3001;DHT22;1510;51.072;6.678;2023-07-16T04:51:04;16.20;99.90
3001;DHT22;1510;51.072;6.678;2023-07-16T04:53:31;16.10;99.90
3001;DHT22;1510;51.072;6.678;2023-07-16T04:55:59;16.10;99.90
3001;DHT22;1510;51.072;6.678;2023-07-16T04:58:26;16.20;99.90
3001;DHT22;1510;51.072;6.678;2023-07-16T05:00:53;16.30;99.90
3001;DHT22;1510;51.072;6.678;2023-07-16T05:03:20;16.30;99.90
3001;DHT22;1510;51.072;6.678;2023-07-16T05:05:46;16.30;99.90
3001;DHT22;1510;51.072;6.678;2023-07-16T05:08:13;16.40;99.90
3001;DHT22;1510;51.072;6.678;2023-07-16T05:10:40;16.50;99.90
3001;DHT22;1510;51.072;6.678;2023-07-16T05:13:08;16.50;99.90
3001;DHT22;1510;51.072;6.678;2023-07-16T05:15:35;16.60;99.90
3001;DHT22;1510;51.072;6.678;2023-07-16T05:18:03;16.70;97.80
3001;DHT22;1510;51.072;6.678;2023-07-16T05:20:30;16.70;97.10
3001;DHT22;1510;51.072;6.678;2023-07-16T05:22:57;16.80;97.10
3001;DHT22;1510;51.072;6.678;2023-07-16T05:25:24;17.00;93.90
3001;DHT22;1510;51.072;6.678;2023-07-16T05:27:51;17.10;93.90
3001;DHT22;1510;51.072;6.678;2023-07-16T05:30:19;17.30;93.50
3001;DHT22;1510;51.072;6.678;2023-07-16T05:32:46;17.70;90.70
3001;DHT22;1510;51.072;6.678;2023-07-16T05:35:13;18.10;90.90
3001;DHT22;1510;51.072;6.678;2023-07-16T05:37:40;18.40;84.70
3001;DHT22;1510;51.072;6.678;2023-07-16T05:40:07;18.80;84.90
3001;DHT22;1510;51.072;6.678;2023-07-16T05:42:35;19.10;80.20
3001;DHT22;1510;51.072;6.678;2023-07-16T05:45:02;19.40;77.70
3001;DHT22;1510;51.072;6.678;2023-07-16T05:47:30;19.70;77.90
3001;DHT22;1510;51.072;6.678;2023-07-16T05:49:57;19.90;70.00
3001;DHT22;1510;51.072;6.678;2023-07-16T05:52:24;20.20;70.30
3001;DHT22;1510;51.072;6.678;2023-07-16T05:54:50;20.20;63.90
3001;DHT22;1510;51.072;6.678;2023-07-16T05:57:17;20.40;66.50
3001;DHT22;1510;51.072;6.678;2023-07-16T05:59:44;20.40;65.40
3001;DHT22;1510;51.072;6.678;2023-07-16T06:02:11;20.70;62.50
3001;DHT22;1510;51.072;6.678;2023-07-16T06:04:39;20.60;62.40
3001;DHT22;1510;51.072;6.678;2023-07-16T06:07:06;20.90;61.30
3001;DHT22;1510;51.072;6.678;2023-07-16T06:09:33;20.90;55.00
3001;DHT22;1510;51.072;6.678;2023-07-16T06:12:00;21.10;54.20
3001;DHT22;1510;51.072;6.678;2023-07-16T06:14:27;21.40;54.50
3001;DHT22;1510;51.072;6.678;2023-07-16T06:16:53;21.40;54.50
3001;DHT22;1510;51.072;6.678;2023-07-16T06:19:21;21.50;54.50
3001;DHT22;1510;51.072;6.678;2023-07-16T06:21:49;21.50;52.00
3001;DHT22;1510;51.072;6.678;2023-07-16T06:24:16;21.50;45.80
3001;DHT22;1510;51.072;6.678;2023-07-16T06:26:43;21.60;45.90
3001;DHT22;1510;51.072;6.678;2023-07-16T06:29:12;21.50;45.80
3001;DHT22;1510;51.072;6.678;2023-07-16T06:31:41;21.70;46.00
3001;DHT22;1510;51.072;6.678;2023-07-16T06:34:08;21.70;41.40
3001;DHT22;1510;51.072;6.678;2023-07-16T06:36:35;21.60;45.80
3001;DHT22;1510;51.072;6.678;2023-07-16T06:39:03;21.70;41.00
3001;DHT22;1510;51.072;6.678;2023-07-16T06:41:31;21.60;36.80
3001;DHT22;1510;51.072;6.678;2023-07-16T06:43:57;21.70;36.90
3001;DHT22;1510;51.072;6.678;2023-07-16T06:46:24;21.80;37.00
3001;DHT22;1510;51.072;6.678;2023-07-16T06:48:51;21.80;37.00
3001;DHT22;1510;51.072;6.678;2023-07-16T06:51:18;21.90;37.10
3001;DHT22;1510;51.072;6.678;2023-07-16T06:53:46;22.20;37.30
3001;DHT22;1510;51.072;6.678;2023-07-16T06:56:14;22.40;37.50
3001;DHT22;1510;51.072;6.678;2023-07-16T06:58:41;22.20;32.70
3001;DHT22;1510;51.072;6.678;2023-07-16T07:01:08;22.30;32.10
3001;DHT22;1510;51.072;6.678;2023-07-16T07:03:34;22.20;37.30
3001;DHT22;1510;51.072;6.678;2023-07-16T07:06:02;22.60;30.90
3001;DHT22;1510;51.072;6.678;2023-07-16T07:08:29;22.60;28.90
3001;DHT22;1510;51.072;6.678;2023-07-16T07:10:56;22.60;28.90
3001;DHT22;1510;51.072;6.678;2023-07-16T07:13:24;22.60;28.90
3001;DHT22;1510;51.072;6.678;2023-07-16T07:15:51;22.70;30.50
3001;DHT22;1510;51.072;6.678;2023-07-16T07:18:18;22.80;29.00
3001;DHT22;1510;51.072;6.678;2023-07-16T07:20:46;22.80;29.00
3001;DHT22;1510;51.072;6.678;2023-07-16T07:23:15;22.80;28.20
3001;DHT22;1510;51.072;6.678;2023-07-16T07:25:42;22.80;29.10
3001;DHT22;1510;51.072;6.678;2023-07-16T07:28:09;22.70;24.60
3001;DHT22;1510;51.072;6.678;2023-07-16T07:30:37;22.60;23.90
3001;DHT22;1510;51.072;6.678;2023-07-16T07:33:04;22.70;23.60
3001;DHT22;1510;51.072;6.678;2023-07-16T07:35:30;22.70;21.60
3001;DHT22;1510;51.072;6.678;2023-07-16T07:37:57;22.90;21.80
3001;DHT22;1510;51.072;6.678;2023-07-16T07:40:25;22.90;21.80
3001;DHT22;1510;51.072;6.678;2023-07-16T07:42:52;22.80;21.70
3001;DHT22;1510;51.072;6.678;2023-07-16T07:45:19;22.80;21.70
3001;DHT22;1510;51.072;6.678;2023-07-16T07:47:47;22.70;21.60
3001;DHT22;1510;51.072;6.678;2023-07-16T07:50:14;22.70;21.60
3001;DHT22;1510;51.072;6.678;2023-07-16T07:52:41;22.40;21.40
3001;DHT22;1510;51.072;6.678;2023-07-16T07:55:08;22.80;21.70
3001;DHT22;1510;51.072;6.678;2023-07-16T07:57:35;23.00;19.60
3001;DHT22;1510;51.072;6.678;2023-07-16T08:00:02;22.90;18.20
3001;DHT22;1510;51.072;6.678;2023-07-16T08:02:29;23.20;16.40
3001;DHT22;1510;51.072;6.678;2023-07-16T08:04:58;23.50;14.80
3001;DHT22;1510;51.072;6.678;2023-07-16T08:07:24;23.30;14.60
3001;DHT22;1510;51.072;6.678;2023-07-16T08:09:52;23.60;14.80
3001;DHT22;1510;51.072;6.678;2023-07-16T08:12:19;23.90;15.00
3001;DHT22;1510;51.072;6.678;2023-07-16T08:14:47;23.50;14.70
3001;DHT22;1510;51.072;6.678;2023-07-16T08:17:14;23.50;14.70
3001;DHT22;1510;51.072;6.678;2023-07-16T08:19:41;23.80;15.00
3001;DHT22;1510;51.072;6.678;2023-07-16T08:22:09;24.10;15.10
3001;DHT22;1510;51.072;6.678;2023-07-16T08:24:37;24.40;15.40
3001;DHT22;1510;51.072;6.678;2023-07-16T08:27:04;24.80;10.00
3001;DHT22;1510;51.072;6.678;2023-07-16T08:29:31;24.40;8.00
3001;DHT22;1510;51.072;6.678;2023-07-16T08:31:58;24.70;8.60
3001;DHT22;1510;51.072;6.678;2023-07-16T08:34:26;24.20;7.60
3001;DHT22;1510;51.072;6.678;2023-07-16T08:36:53;24.10;7.50
3001;DHT22;1510;51.072;6.678;2023-07-16T08:39:21;24.30;7.60
3001;DHT22;1510;51.072;6.678;2023-07-16T08:41:48;24.00;7.40
3001;DHT22;1510;51.072;6.678;2023-07-16T08:44:15;24.20;8.80
3001;DHT22;1510;51.072;6.678;2023-07-16T08:46:42;23.90;7.30
3001;DHT22;1510;51.072;6.678;2023-07-16T08:49:11;23.60;7.10
3001;DHT22;1510;51.072;6.678;2023-07-16T08:51:39;23.50;7.10
3001;DHT22;1510;51.072;6.678;2023-07-16T08:54:06;24.00;8.10
3001;DHT22;1510;51.072;6.678;2023-07-16T08:56:34;24.10;7.50
3001;DHT22;1510;51.072;6.678;2023-07-16T08:59:01;24.70;8.00
3001;DHT22;1510;51.072;6.678;2023-07-16T09:01:29;25.00;4.60
3001;DHT22;1510;51.072;6.678;2023-07-16T09:03:56;25.50;2.60
3001;DHT22;1510;51.072;6.678;2023-07-16T09:06:23;25.60;1.00
3001;DHT22;1510;51.072;6.678;2023-07-16T09:08:50;25.20;1.00
3001;DHT22;1510;51.072;6.678;2023-07-16T09:11:17;25.60;3.20
3001;DHT22;1510;51.072;6.678;2023-07-16T09:13:48;25.10;1.00
3001;DHT22;1510;51.072;6.678;2023-07-16T09:16:18;25.50;1.00
3001;DHT22;1510;51.072;6.678;2023-07-16T09:18:45;25.70;1.00
3001;DHT22;1510;51.072;6.678;2023-07-16T09:21:12;26.20;1.00
3001;DHT22;1510;51.072;6.678;2023-07-16T09:23:39;26.40;1.00
3001;DHT22;1510;51.072;6.678;2023-07-16T09:26:07;26.90;1.00
3001;DHT22;1510;51.072;6.678;2023-07-16T09:28:34;26.50;1.00
3001;DHT22;1510;51.072;6.678;2023-07-16T09:31:06;26.90;1.00
3001;DHT22;1510;51.072;6.678;2023-07-16T09:33:33;26.20;1.00
3001;DHT22;1510;51.072;6.678;2023-07-16T09:36:00;25.90;1.00
3001;DHT22;1510;51.072;6.678;2023-07-16T09:38:29;25.80;1.00
3001;DHT22;1510;51.072;6.678;2023-07-16T09:40:56;25.40;1.00
3001;DHT22;1510;51.072;6.678;2023-07-16T09:43:23;25.50;1.00
3001;DHT22;1510;51.072;6.678;2023-07-16T09:45:50;25.00;1.00
3001;DHT22;1510;51.072;6.678;2023-07-16T09:48:19;25.00;1.00
3001;DHT22;1510;51.072;6.678;2023-07-16T09:50:50;26.00;1.00
3001;DHT22;1510;51.072;6.678;2023-07-16T09:53:19;27.00;1.30
3001;DHT22;1510;51.072;6.678;2023-07-16T09:55:46;27.50;1.00
3001;DHT22;1510;51.072;6.678;2023-07-16T09:58:14;28.00;1.00
3001;DHT22;1510;51.072;6.678;2023-07-16T10:00:45;27.90;1.00
3001;DHT22;1510;51.072;6.678;2023-07-16T10:03:14;28.20;1.00
3001;DHT22;1510;51.072;6.678;2023-07-16T10:05:43;28.30;1.00
3001;DHT22;1510;51.072;6.678;2023-07-16T10:08:17;28.10;1.00
3001;DHT22;1510;51.072;6.678;2023-07-16T10:10:46;26.90;1.00
3001;DHT22;1510;51.072;6.678;2023-07-16T10:13:14;26.40;1.00
3001;DHT22;1510;51.072;6.678;2023-07-16T10:15:51;26.40;1.00
3001;DHT22;1510;51.072;6.678;2023-07-16T10:18:29;25.60;1.00
3001;DHT22;1510;51.072;6.678;2023-07-16T10:21:05;25.10;1.00
3001;DHT22;1510;51.072;6.678;2023-07-16T10:23:39;25.10;1.00
3001;DHT22;1510;51.072;6.678;2023-07-16T10:26:08;25.90;1.00
3001;DHT22;1510;51.072;6.678;2023-07-16T10:28:35;25.60;1.00
3001;DHT22;1510;51.072;6.678;2023-07-16T10:31:02;26.10;1.00
3001;DHT22;1510;51.072;6.678;2023-07-16T10:33:29;26.50;1.00
3001;DHT22;1510;51.072;6.678;2023-07-16T10:35:57;27.20;1.00
3001;DHT22;1510;51.072;6.678;2023-07-16T10:38:26;27.10;1.00
3001;DHT22;1510;51.072;6.678;2023-07-16T10:40:53;26.90;1.00
3001;DHT22;1510;51.072;6.678;2023-07-16T10:43:20;26.40;1.00
3001;DHT22;1510;51.072;6.678;2023-07-16T10:45:47;25.90;1.00
3001;DHT22;1510;51.072;6.678;2023-07-16T10:48:16;26.20;1.00
3001;DHT22;1510;51.072;6.678;2023-07-16T10:50:43;26.10;1.00
3001;DHT22;1510;51.072;6.678;2023-07-16T10:53:11;25.80;1.00
3001;DHT22;1510;51.072;6.678;2023-07-16T10:55:41;26.20;1.00
3001;DHT22;1510;51.072;6.678;2023-07-16T10:58:11;27.10;1.00
3001;DHT22;1510;51.072;6.678;2023-07-16T11:00:39;27.80;1.00
3001;DHT22;1510;51.072;6.678;2023-07-16T11:03:06;27.70;1.00
3001;DHT22;1510;51.072;6.678;2023-07-16T11:05:34;27.80;1.00
3001;DHT22;1510;51.072;6.678;2023-07-16T11:08:01;27.90;1.00
3001;DHT22;1510;51.072;6.678;2023-07-16T11:10:29;27.40;1.00
3001;DHT22;1510;51.072;6.678;2023-07-16T11:12:57;28.00;1.00
3001;DHT22;1510;51.072;6.678;2023-07-16T11:15:33;29.00;1.00
3001;DHT22;1510;51.072;6.678;2023-07-16T11:18:00;29.30;1.00
3001;DHT22;1510;51.072;6.678;2023-07-16T11:20:29;28.80;1.00
3001;DHT22;1510;51.072;6.678;2023-07-16T11:22:58;28.60;1.00
3001;DHT22;1510;51.072;6.678;2023-07-16T11:25:25;28.50;1.00
3001;DHT22;1510;51.072;6.678;2023-07-16T11:27:54;28.50;1.00
3001;DHT22;1510;51.072;6.678;2023-07-16T11:30:24;28.80;1.00
3001;DHT22;1510;51.072;6.678;2023-07-16T11:32:51;27.90;1.00
3001;DHT22;1510;51.072;6.678;2023-07-16T11:35:19;27.00;1.00
3001;DHT22;1510;51.072;6.678;2023-07-16T11:37:46;26.00;1.00
3001;DHT22;1510;51.072;6.678;2023-07-16T11:40:16;26.00;1.00
3001;DHT22;1510;51.072;6.678;2023-07-16T11:42:43;25.90;1.00
3001;DHT22;1510;51.072;6.678;2023-07-16T11:45:16;27.00;1.00
3001;DHT22;1510;51.072;6.678;2023-07-16T11:47:45;26.90;1.00
3001;DHT22;1510;51.072;6.678;2023-07-16T11:50:12;26.80;1.00
3001;DHT22;1510;51.072;6.678;2023-07-16T11:52:39;27.90;1.00
3001;DHT22;1510;51.072;6.678;2023-07-16T11:55:07;28.20;1.00
3001;DHT22;1510;51.072;6.678;2023-07-16T11:57:34;28.00;1.00
3001;DHT22;1510;51.072;6.678;2023-07-16T12:00:01;27.70;1.00
3001;DHT22;1510;51.072;6.678;2023-07-16T12:02:28;26.90;1.00
3001;DHT22;1510;51.072;6.678;2023-07-16T12:04:57;26.50;1.00
3001;DHT22;1510;51.072;6.678;2023-07-16T12:07:34;26.10;1.00
3001;DHT22;1510;51.072;6.678;2023-07-16T12:10:03;25.50;1.00
3001;DHT22;1510;51.072;6.678;2023-07-16T12:12:30;26.10;1.00
3001;DHT22;1510;51.072;6.678;2023-07-16T12:14:56;26.50;1.00
3001;DHT22;1510;51.072;6.678;2023-07-16T12:17:23;26.60;1.00
3001;DHT22;1510;51.072;6.678;2023-07-16T12:19:50;26.50;1.00
3001;DHT22;1510;51.072;6.678;2023-07-16T12:22:18;26.90;1.00
3001;DHT22;1510;51.072;6.678;2023-07-16T12:24:46;26.80;1.00
3001;DHT22;1510;51.072;6.678;2023-07-16T12:27:14;26.40;1.00
3001;DHT22;1510;51.072;6.678;2023-07-16T12:29:41;26.90;1.00
3001;DHT22;1510;51.072;6.678;2023-07-16T12:32:08;27.20;1.00
3001;DHT22;1510;51.072;6.678;2023-07-16T12:34:35;27.40;1.00
3001;DHT22;1510;51.072;6.678;2023-07-16T12:37:02;27.60;1.00
3001;DHT22;1510;51.072;6.678;2023-07-16T12:39:31;27.30;1.00
3001;DHT22;1510;51.072;6.678;2023-07-16T12:41:58;26.20;1.00
3001;DHT22;1510;51.072;6.678;2023-07-16T12:44:24;26.60;1.00
3001;DHT22;1510;51.072;6.678;2023-07-16T12:46:51;27.00;1.00
3001;DHT22;1510;51.072;6.678;2023-07-16T12:49:19;26.70;1.00
3001;DHT22;1510;51.072;6.678;2023-07-16T12:51:46;26.80;1.00
3001;DHT22;1510;51.072;6.678;2023-07-16T12:54:13;27.70;1.00
3001;DHT22;1510;51.072;6.678;2023-07-16T12:56:41;27.50;1.00
3001;DHT22;1510;51.072;6.678;2023-07-16T12:59:08;27.50;1.00
3001;DHT22;1510;51.072;6.678;2023-07-16T13:01:35;27.30;1.00
3001;DHT22;1510;51.072;6.678;2023-07-16T13:04:01;26.90;1.00
3001;DHT22;1510;51.072;6.678;2023-07-16T13:06:28;27.20;1.00
3001;DHT22;1510;51.072;6.678;2023-07-16T13:08:55;26.20;1.00
3001;DHT22;1510;51.072;6.678;2023-07-16T13:11:22;25.90;1.00
3001;DHT22;1510;51.072;6.678;2023-07-16T13:13:51;25.80;1.00
3001;DHT22;1510;51.072;6.678;2023-07-16T13:16:18;25.70;1.00
3001;DHT22;1510;51.072;6.678;2023-07-16T13:18:44;25.60;1.00
3001;DHT22;1510;51.072;6.678;2023-07-16T13:21:11;25.70;1.00
3001;DHT22;1510;51.072;6.678;2023-07-16T13:23:38;25.60;1.00
3001;DHT22;1510;51.072;6.678;2023-07-16T13:26:05;25.80;1.00
3001;DHT22;1510;51.072;6.678;2023-07-16T13:28:32;25.50;1.00
3001;DHT22;1510;51.072;6.678;2023-07-16T13:31:00;25.50;1.00
3001;DHT22;1510;51.072;6.678;2023-07-16T13:33:27;25.70;1.00
3001;DHT22;1510;51.072;6.678;2023-07-16T13:35:54;25.60;1.00
3001;DHT22;1510;51.072;6.678;2023-07-16T13:38:20;25.80;1.00
3001;DHT22;1510;51.072;6.678;2023-07-16T13:40:47;25.80;1.00
3001;DHT22;1510;51.072;6.678;2023-07-16T13:43:14;25.80;1.00
3001;DHT22;1510;51.072;6.678;2023-07-16T13:45:41;25.70;1.00
3001;DHT22;1510;51.072;6.678;2023-07-16T13:48:09;25.70;1.00
3001;DHT22;1510;51.072;6.678;2023-07-16T13:50:36;26.80;1.00
3001;DHT22;1510;51.072;6.678;2023-07-16T13:53:03;26.70;1.00
3001;DHT22;1510;51.072;6.678;2023-07-16T13:55:30;27.10;1.00
3001;DHT22;1510;51.072;6.678;2023-07-16T13:57:57;27.10;1.00
3001;DHT22;1510;51.072;6.678;2023-07-16T14:00:23;26.90;1.00
3001;DHT22;1510;51.072;6.678;2023-07-16T14:02:51;26.50;1.00
3001;DHT22;1510;51.072;6.678;2023-07-16T14:05:19;26.30;1.00
3001;DHT22;1510;51.072;6.678;2023-07-16T14:07:46;26.10;1.00
3001;DHT22;1510;51.072;6.678;2023-07-16T14:10:13;25.80;1.00
3001;DHT22;1510;51.072;6.678;2023-07-16T14:12:40;25.60;1.00
3001;DHT22;1510;51.072;6.678;2023-07-16T14:15:07;25.20;1.00
3001;DHT22;1510;51.072;6.678;2023-07-16T14:17:34;25.20;1.00
3001;DHT22;1510;51.072;6.678;2023-07-16T14:20:01;25.50;1.00
3001;DHT22;1510;51.072;6.678;2023-07-16T14:22:30;26.40;1.00
3001;DHT22;1510;51.072;6.678;2023-07-16T14:24:57;26.70;1.00
3001;DHT22;1510;51.072;6.678;2023-07-16T14:27:24;26.40;1.00
3001;DHT22;1510;51.072;6.678;2023-07-16T14:29:51;26.10;1.00
3001;DHT22;1510;51.072;6.678;2023-07-16T14:32:17;25.50;1.00
3001;DHT22;1510;51.072;6.678;2023-07-16T14:34:44;25.60;1.00
3001;DHT22;1510;51.072;6.678;2023-07-16T14:37:11;25.90;1.00
3001;DHT22;1510;51.072;6.678;2023-07-16T14:39:40;26.60;1.00
3001;DHT22;1510;51.072;6.678;2023-07-16T14:42:07;27.10;1.00
3001;DHT22;1510;51.072;6.678;2023-07-16T14:44:34;27.60;1.00
3001;DHT22;1510;51.072;6.678;2023-07-16T14:47:01;27.80;1.00
3001;DHT22;1510;51.072;6.678;2023-07-16T14:49:29;28.80;1.00
3001;DHT22;1510;51.072;6.678;2023-07-16T14:51:56;29.00;1.00
3001;DHT22;1510;51.072;6.678;2023-07-16T14:54:23;28.80;1.00
3001;DHT22;1510;51.072;6.678;2023-07-16T14:56:51;27.90;1.00
3001;DHT22;1510;51.072;6.678;2023-07-16T14:59:18;27.80;1.00
3001;DHT22;1510;51.072;6.678;2023-07-16T15:01:45;27.20;1.00
3001;DHT22;1510;51.072;6.678;2023-07-16T15:04:11;27.30;1.00
3001;DHT22;1510;51.072;6.678;2023-07-16T15:06:38;27.60;1.00
3001;DHT22;1510;51.072;6.678;2023-07-16T15:09:05;27.30;1.00
3001;DHT22;1510;51.072;6.678;2023-07-16T15:11:33;27.50;1.00
3001;DHT22;1510;51.072;6.678;2023-07-16T15:14:01;27.60;1.00
3001;DHT22;1510;51.072;6.678;2023-07-16T15:16:31;27.80;1.00
3001;DHT22;1510;51.072;6.678;2023-07-16T15:18:57;28.00;1.00
3001;DHT22;1510;51.072;6.678;2023-07-16T15:21:25;28.10;1.00
3001;DHT22;1510;51.072;6.678;2023-07-16T15:23:52;28.30;1.00
3001;DHT22;1510;51.072;6.678;2023-07-16T15:26:19;28.40;1.00
3001;DHT22;1510;51.072;6.678;2023-07-16T15:28:45;28.80;1.00
3001;DHT22;1510;51.072;6.678;2023-07-16T15:31:14;29.00;1.00
3001;DHT22;1510;51.072;6.678;2023-07-16T15:33:40;29.50;1.00
3001;DHT22;1510;51.072;6.678;2023-07-16T15:36:07;28.90;1.00
3001;DHT22;1510;51.072;6.678;2023-07-16T15:38:34;28.20;1.00
3001;DHT22;1510;51.072;6.678;2023-07-16T15:41:01;27.70;1.00
3001;DHT22;1510;51.072;6.678;2023-07-16T15:43:28;27.40;1.00
3001;DHT22;1510;51.072;6.678;2023-07-16T15:45:55;27.20;1.00
3001;DHT22;1510;51.072;6.678;2023-07-16T15:48:23;27.30;1.00
3001;DHT22;1510;51.072;6.678;2023-07-16T15:50:56;27.60;1.00
3001;DHT22;1510;51.072;6.678;2023-07-16T15:53:23;28.10;1.00
3001;DHT22;1510;51.072;6.678;2023-07-16T15:55:50;28.60;1.00
3001;DHT22;1510;51.072;6.678;2023-07-16T15:58:17;29.30;1.00
3001;DHT22;1510;51.072;6.678;2023-07-16T16:00:44;29.40;1.00
3001;DHT22;1510;51.072;6.678;2023-07-16T16:03:11;30.00;1.00
3001;DHT22;1510;51.072;6.678;2023-07-16T16:05:40;30.80;1.00
3001;DHT22;1510;51.072;6.678;2023-07-16T16:08:11;29.90;1.00
3001;DHT22;1510;51.072;6.678;2023-07-16T16:10:39;30.90;1.00